Time;durP1;ratioP1;P1;durP2;ratioP2;P2;SDS_P1;SDS_P2;PMS_P1;PMS_P2;Temp;Humidity;BMP_temperature;BMP_pressure;BME280_temperature;BME280_humidity;BME280_pressure;Samples;Min_cycle;Max_cycle;Signal;HPM_P1;HPM_P2
2024/04/07 00:02:16;0.00;0.00;0.62;0.00;0.00;0.62;2.43;1.70;;;27.10;28.20;;;;;;2231739;62;20793;-65
2024/04/07 00:05:04;0.00;0.00;0.62;0.00;0.00;0.62;2.23;1.40;;;27.10;28.20;;;;;;2231804;62;20371;-65
2024/04/07 00:07:48;0.00;0.00;0.62;0.00;0.00;0.62;3.00;1.57;;;27.10;28.20;;;;;;2231465;62;20435;-66
2024/04/07 00:10:36;0.00;0.00;0.62;0.00;0.00;0.62;2.40;1.73;;;27.10;28.20;;;;;;2231489;62;20524;-68
2024/04/07 00:13:20;0.00;0.00;0.62;0.00;0.00;0.62;2.67;1.67;;;27.10;28.20;;;;;;2231386;62;20964;-66
2024/04/07 00:16:05;0.00;0.00;0.62;0.00;0.00;0.62;2.17;1.50;;;27.10;28.20;;;;;;2231453;62;20399;-65
2024/04/07 00:18:53;0.00;0.00;0.62;0.00;0.00;0.62;2.20;1.57;;;27.00;28.10;;;;;;2231534;62;20416;-64
2024/04/07 00:21:40;0.00;0.00;0.62;0.00;0.00;0.62;2.27;1.63;;;27.10;28.20;;;;;;2231730;62;20474;-63
2024/04/07 00:24:24;0.00;0.00;0.62;0.00;0.00;0.62;1.87;1.10;;;27.10;28.20;;;;;;2231780;62;20419;-64
2024/04/07 00:27:09;0.00;0.00;0.62;0.00;0.00;0.62;2.77;1.60;;;27.00;28.10;;;;;;2231677;62;20364;-65
2024/04/07 00:29:54;0.00;0.00;0.62;0.00;0.00;0.62;2.37;1.63;;;27.10;28.20;;;;;;2231049;62;20793;-65
2024/04/07 00:32:39;0.00;0.00;0.62;0.00;0.00;0.62;2.07;1.53;;;27.10;28.20;;;;;;2231520;62;20391;-65
2024/04/07 00:35:25;0.00;0.00;0.62;0.00;0.00;0.62;2.03;1.40;;;27.10;28.20;;;;;;2234075;62;20428;-65
2024/04/07 00:38:10;0.00;0.00;0.62;0.00;0.00;0.62;2.43;1.60;;;27.10;28.10;;;;;;2231275;62;20383;-66
2024/04/07 00:40:56;0.00;0.00;0.62;0.00;0.00;0.62;2.17;1.70;;;27.10;28.10;;;;;;2231708;62;20446;-65
2024/04/07 00:43:41;0.00;0.00;0.62;0.00;0.00;0.62;1.70;1.20;;;27.10;28.10;;;;;;2231758;62;20881;-65
2024/04/07 00:46:27;0.00;0.00;0.62;0.00;0.00;0.62;1.90;1.53;;;27.00;28.10;;;;;;2655498;46;20389;-64
2024/04/07 00:49:12;0.00;0.00;0.62;0.00;0.00;0.62;2.33;1.67;;;27.00;28.10;;;;;;2227645;62;20911;-66
2024/04/07 00:51:59;0.00;0.00;0.62;0.00;0.00;0.62;2.27;1.57;;;27.00;28.00;;;;;;2228832;62;20506;-63
2024/04/07 00:54:43;0.00;0.00;0.62;0.00;0.00;0.62;2.20;1.63;;;27.00;28.00;;;;;;2231433;62;20367;-65
2024/04/07 00:57:29;0.00;0.00;0.62;0.00;0.00;0.62;2.10;1.70;;;27.00;28.00;;;;;;2231534;62;20774;-64
2024/04/07 01:00:14;0.00;0.00;0.62;0.00;0.00;0.62;2.57;1.67;;;27.00;28.00;;;;;;2231131;62;20528;-66
2024/04/07 01:02:58;0.00;0.00;0.62;0.00;0.00;0.62;2.17;1.60;;;27.00;28.00;;;;;;2231821;62;20371;-65
2024/04/07 01:05:45;0.00;0.00;0.62;0.00;0.00;0.62;3.10;1.30;;;27.00;28.00;;;;;;2231820;62;20375;-65
2024/04/07 01:08:31;0.00;0.00;0.62;0.00;0.00;0.62;2.93;1.40;;;27.00;27.90;;;;;;2500405;54;20371;-65
2024/04/07 01:11:16;0.00;0.00;0.62;0.00;0.00;0.62;2.40;1.60;;;27.00;28.40;;;;;;2231684;62;20929;-65
2024/04/07 01:14:02;0.00;0.00;0.62;0.00;0.00;0.62;2.50;1.53;;;27.00;27.90;;;;;;2231262;62;20957;-65
2024/04/07 01:16:47;0.00;0.00;0.62;0.00;0.00;0.62;2.13;1.33;;;27.00;27.90;;;;;;2231756;62;21061;-64
2024/04/07 01:19:31;0.00;0.00;0.62;0.00;0.00;0.62;2.43;1.57;;;27.00;27.90;;;;;;2231744;62;20392;-65
2024/04/07 01:22:16;0.00;0.00;0.62;0.00;0.00;0.62;2.30;1.50;;;27.00;27.80;;;;;;2231350;62;20427;-64
2024/04/07 01:25:03;0.00;0.00;0.62;0.00;0.00;0.62;1.83;1.43;;;27.00;27.80;;;;;;2231713;62;20426;-64
2024/04/07 01:27:55;0.00;0.00;0.62;0.00;0.00;0.62;2.00;1.60;;;27.00;27.80;;;;;;2231622;62;20382;-64
2024/04/07 01:30:40;0.00;0.00;0.62;0.00;0.00;0.62;2.50;1.57;;;27.00;27.80;;;;;;2430232;46;20408;-64
2024/04/07 01:33:25;0.00;0.00;0.62;0.00;0.00;0.62;2.20;1.70;;;27.00;27.70;;;;;;2227819;62;20705;-64
2024/04/07 01:36:10;0.00;0.00;0.62;0.00;0.00;0.62;2.37;1.57;;;27.00;27.70;;;;;;2228168;62;20854;-64
2024/04/07 01:38:55;0.00;0.00;0.62;0.00;0.00;0.62;2.10;1.77;;;27.00;27.60;;;;;;2231402;62;20512;-64
2024/04/07 01:41:41;0.00;0.00;0.62;0.00;0.00;0.62;2.60;1.83;;;27.00;27.60;;;;;;2231652;62;20422;-65
2024/04/07 01:44:25;0.00;0.00;0.62;0.00;0.00;0.62;3.10;1.63;;;27.00;27.50;;;;;;2227119;62;20383;-65
2024/04/07 01:47:10;0.00;0.00;0.62;0.00;0.00;0.62;2.10;1.63;;;27.00;27.50;;;;;;2533389;46;20370;-64
2024/04/07 01:49:56;0.00;0.00;0.62;0.00;0.00;0.62;2.30;1.97;;;27.00;28.00;;;;;;2231772;62;20367;-64
2024/04/07 01:52:41;0.00;0.00;0.62;0.00;0.00;0.62;2.70;1.50;;;27.00;27.40;;;;;;2231889;62;20387;-64
2024/04/07 01:55:26;0.00;0.00;0.62;0.00;0.00;0.62;2.17;1.70;;;27.00;27.40;;;;;;2530637;46;20446;-65
2024/04/07 01:58:12;0.00;0.00;0.62;0.00;0.00;0.62;2.00;1.50;;;27.00;27.40;;;;;;2231840;62;20477;-64
2024/04/07 02:00:57;0.00;0.00;0.62;0.00;0.00;0.62;3.10;1.73;;;27.00;27.40;;;;;;2231508;62;20817;-64
2024/04/07 02:03:41;0.00;0.00;0.62;0.00;0.00;0.62;2.30;1.80;;;27.00;27.40;;;;;;2232137;62;20935;-64
2024/04/07 02:06:26;0.00;0.00;0.62;0.00;0.00;0.62;2.90;1.77;;;27.00;27.40;;;;;;2231934;62;20438;-65
2024/04/07 02:09:11;0.00;0.00;0.62;0.00;0.00;0.62;3.47;1.73;;;27.00;27.40;;;;;;2231521;62;20426;-63
2024/04/07 02:11:55;0.00;0.00;0.62;0.00;0.00;0.62;2.43;1.90;;;26.90;27.30;;;;;;2232080;62;20395;-65
2024/04/07 02:14:42;0.00;0.00;0.62;0.00;0.00;0.62;5.77;2.50;;;27.00;27.40;;;;;;2230992;62;20376;-65
2024/04/07 02:17:26;0.00;0.00;0.62;0.00;0.00;0.62;3.20;1.83;;;26.90;27.30;;;;;;2258444;62;20383;-64
2024/04/07 02:20:11;0.00;0.00;0.62;0.00;0.00;0.62;3.00;2.10;;;26.90;27.30;;;;;;2232101;62;20460;-64
2024/04/07 02:22:56;0.00;0.00;0.62;0.00;0.00;0.62;2.60;2.07;;;26.90;27.30;;;;;;2231503;62;20375;-64
2024/04/07 02:25:41;0.00;0.00;0.62;0.00;0.00;0.62;2.17;1.60;;;26.90;27.30;;;;;;2231991;62;20420;-63
2024/04/07 02:28:27;0.00;0.00;0.62;0.00;0.00;0.62;3.13;2.07;;;26.90;27.30;;;;;;2232138;62;20965;-64
2024/04/07 02:31:13;0.00;0.00;0.62;0.00;0.00;0.62;3.87;2.13;;;26.90;27.40;;;;;;2231407;62;21046;-63
2024/04/07 02:33:58;0.00;0.00;0.62;0.00;0.00;0.62;2.70;1.93;;;26.90;27.30;;;;;;2232176;62;20438;-64
2024/04/07 02:36:42;0.00;0.00;0.62;0.00;0.00;0.62;2.83;2.13;;;26.90;27.30;;;;;;2231966;62;20371;-64
2024/04/07 02:39:27;0.00;0.00;0.62;0.00;0.00;0.62;2.40;1.70;;;26.90;27.30;;;;;;2231550;62;20933;-65
2024/04/07 02:42:11;0.00;0.00;0.62;0.00;0.00;0.62;2.63;1.93;;;26.90;27.30;;;;;;2232097;62;20483;-63
2024/04/07 02:48:03;0.00;0.00;0.62;0.00;0.00;0.62;3.83;2.23;;;26.90;27.30;;;;;;2233595;62;20370;-65
2024/04/07 02:50:48;0.00;0.00;0.62;0.00;0.00;0.62;2.67;1.60;;;26.90;27.30;;;;;;2232047;62;20411;-65
2024/04/07 02:53:33;0.00;0.00;0.62;0.00;0.00;0.62;2.33;1.43;;;26.90;27.30;;;;;;2231514;62;20394;-64
2024/04/07 02:56:18;0.00;0.00;0.62;0.00;0.00;0.62;3.13;2.40;;;26.90;27.30;;;;;;2231971;62;20423;-64
2024/04/07 02:59:03;0.00;0.00;0.62;0.00;0.00;0.62;2.20;1.77;;;26.90;27.30;;;;;;2231918;62;20905;-64
2024/04/07 03:01:48;0.00;0.00;0.62;0.00;0.00;0.62;2.50;2.07;;;26.90;27.30;;;;;;2231701;62;20394;-66
2024/04/07 03:04:34;0.00;0.00;0.62;0.00;0.00;0.62;3.10;2.20;;;26.90;27.30;;;;;;2232103;62;20367;-64
2024/04/07 03:07:18;0.00;0.00;0.62;0.00;0.00;0.62;3.77;2.40;;;26.90;27.20;;;;;;2231337;62;20421;-64
2024/04/07 03:10:04;0.00;0.00;0.62;0.00;0.00;0.62;3.83;2.40;;;26.90;27.20;;;;;;2231929;62;20372;-64
2024/04/07 03:12:49;0.00;0.00;0.62;0.00;0.00;0.62;2.70;1.90;;;26.90;27.20;;;;;;2232002;62;20423;-63
2024/04/07 03:15:34;0.00;0.00;0.62;0.00;0.00;0.62;2.73;1.97;;;26.90;27.20;;;;;;2231287;62;20431;-67
2024/04/07 03:18:19;0.00;0.00;0.62;0.00;0.00;0.62;2.57;1.97;;;26.80;27.10;;;;;;2283031;58;20391;-64
2024/04/07 03:21:05;0.00;0.00;0.62;0.00;0.00;0.62;3.23;1.93;;;26.90;27.20;;;;;;2231803;62;20438;-64
2024/04/07 03:23:50;0.00;0.00;0.62;0.00;0.00;0.62;3.13;1.90;;;26.80;27.10;;;;;;2231359;62;20383;-65
2024/04/07 03:26:34;0.00;0.00;0.62;0.00;0.00;0.62;3.30;2.00;;;26.80;27.10;;;;;;2231998;62;20448;-64
2024/04/07 03:29:19;0.00;0.00;0.62;0.00;0.00;0.62;3.20;2.40;;;26.80;27.00;;;;;;2231321;62;20897;-64
2024/04/07 03:32:04;0.00;0.00;0.62;0.00;0.00;0.62;3.50;2.33;;;26.80;27.00;;;;;;2231878;62;20416;-64
2024/04/07 03:34:50;0.00;0.00;0.62;0.00;0.00;0.62;3.33;2.00;;;26.80;27.00;;;;;;2232039;62;20455;-65
2024/04/07 03:37:36;0.00;0.00;0.62;0.00;0.00;0.62;3.67;2.00;;;26.80;26.90;;;;;;2231257;62;20419;-64
2024/04/07 03:40:20;0.00;0.00;0.62;0.00;0.00;0.62;3.07;2.43;;;26.80;26.90;;;;;;2231840;62;20388;-65
2024/04/07 03:43:05;0.00;0.00;0.62;0.00;0.00;0.62;2.20;1.73;;;26.80;26.90;;;;;;2231705;62;20387;-64
2024/04/07 03:45:59;0.00;0.00;0.62;0.00;0.00;0.62;4.20;2.10;;;26.80;26.90;;;;;;2231010;62;20383;-65
2024/04/07 03:48:44;0.00;0.00;0.62;0.00;0.00;0.62;2.50;2.00;;;26.80;26.90;;;;;;2231871;62;21117;-64
2024/04/07 03:51:29;0.00;0.00;0.62;0.00;0.00;0.62;3.20;2.23;;;26.80;26.90;;;;;;2231254;62;20390;-63
2024/04/07 03:54:15;0.00;0.00;0.62;0.00;0.00;0.62;2.60;2.00;;;26.80;26.90;;;;;;2231730;62;20809;-63
2024/04/07 03:56:59;0.00;0.00;0.62;0.00;0.00;0.62;2.70;1.60;;;26.80;27.40;;;;;;2231749;62;20371;-64
2024/04/07 03:59:44;0.00;0.00;0.62;0.00;0.00;0.62;3.33;2.17;;;26.80;26.90;;;;;;2231308;62;20414;-65
2024/04/07 04:02:30;0.00;0.00;0.62;0.00;0.00;0.62;2.57;1.80;;;26.80;26.90;;;;;;2231878;62;20371;-64
2024/04/07 04:05:16;0.00;0.00;0.62;0.00;0.00;0.62;2.47;1.73;;;26.80;26.90;;;;;;2231636;62;20419;-64
2024/04/07 04:08:01;0.00;0.00;0.62;0.00;0.00;0.62;2.40;1.80;;;26.80;26.90;;;;;;2231228;62;20492;-65
2024/04/07 04:10:47;0.00;0.00;0.62;0.00;0.00;0.62;2.20;1.67;;;26.80;26.90;;;;;;2232141;62;20792;-65
2024/04/07 04:13:35;0.00;0.00;0.62;0.00;0.00;0.62;2.00;1.40;;;26.80;26.80;;;;;;2231138;62;20399;-66
2024/04/07 04:16:19;0.00;0.00;0.62;0.00;0.00;0.62;2.70;2.00;;;26.80;26.80;;;;;;2231785;62;20995;-63
2024/04/07 04:19:04;0.00;0.00;0.62;0.00;0.00;0.62;2.97;2.03;;;26.80;27.30;;;;;;2231680;62;20443;-64
2024/04/07 04:21:50;0.00;0.00;0.62;0.00;0.00;0.62;4.17;1.73;;;26.80;26.80;;;;;;2231255;62;20391;-64
2024/04/07 04:24:35;0.00;0.00;0.62;0.00;0.00;0.62;3.00;1.93;;;26.80;26.80;;;;;;2230436;62;20424;-64
2024/04/07 04:27:21;0.00;0.00;0.62;0.00;0.00;0.62;3.10;1.93;;;26.80;26.80;;;;;;2457087;54;20427;-65
2024/04/07 04:30:07;0.00;0.00;0.62;0.00;0.00;0.62;3.17;2.30;;;26.70;26.70;;;;;;2229989;62;20395;-66
2024/04/07 04:32:53;0.00;0.00;0.62;0.00;0.00;0.62;2.40;1.60;;;26.80;26.80;;;;;;2232494;62;20391;-64
2024/04/07 04:35:38;0.00;0.00;0.62;0.00;0.00;0.62;3.23;2.33;;;26.80;26.70;;;;;;2232053;62;20949;-64
2024/04/07 04:38:22;0.00;0.00;0.62;0.00;0.00;0.62;2.67;1.80;;;26.80;26.70;;;;;;2495111;54;20408;-64
2024/04/07 04:41:07;0.00;0.00;0.62;0.00;0.00;0.62;3.70;2.50;;;26.70;26.70;;;;;;2234768;62;20607;-64
2024/04/07 04:43:53;0.00;0.00;0.62;0.00;0.00;0.62;3.13;2.23;;;26.70;26.60;;;;;;2231871;62;20374;-63
2024/04/07 04:46:38;0.00;0.00;0.62;0.00;0.00;0.62;3.27;2.47;;;26.70;26.60;;;;;;2232371;62;20430;-64
2024/04/07 04:49:23;0.00;0.00;0.62;0.00;0.00;0.62;3.67;2.80;;;26.70;26.60;;;;;;2232272;62;20371;-64
2024/04/07 04:52:08;0.00;0.00;0.62;0.00;0.00;0.62;4.13;2.80;;;26.70;27.00;;;;;;2231917;62;20439;-64
2024/04/07 04:54:52;0.00;0.00;0.62;0.00;0.00;0.62;3.40;2.60;;;26.70;26.50;;;;;;2232514;62;20412;-64
2024/04/07 04:57:37;0.00;0.00;0.62;0.00;0.00;0.62;4.73;3.50;;;26.70;26.50;;;;;;2232024;62;20494;-64
2024/04/07 05:00:23;0.00;0.00;0.62;0.00;0.00;0.62;4.57;2.87;;;26.70;26.50;;;;;;2593977;46;20438;-64
2024/04/07 05:03:07;0.00;0.00;0.62;0.00;0.00;0.62;4.80;3.90;;;26.70;26.50;;;;;;2232309;62;20469;-63
2024/04/07 05:05:52;0.00;0.00;0.62;0.00;0.00;0.62;3.80;2.80;;;26.70;26.50;;;;;;2231770;62;20439;-64
2024/04/07 05:08:37;0.00;0.00;0.62;0.00;0.00;0.62;5.20;3.43;;;26.70;26.50;;;;;;2232026;62;20443;-64
2024/04/07 05:11:22;0.00;0.00;0.62;0.00;0.00;0.62;5.50;3.93;;;26.70;26.50;;;;;;2232380;62;20800;-64
2024/04/07 05:14:07;0.00;0.00;0.62;0.00;0.00;0.62;6.20;3.90;;;26.70;26.50;;;;;;2231475;62;20450;-65
2024/04/07 05:16:53;0.00;0.00;0.62;0.00;0.00;0.62;4.77;3.77;;;26.70;26.50;;;;;;2232324;62;20371;-64
2024/04/07 05:19:38;0.00;0.00;0.62;0.00;0.00;0.62;4.60;4.10;;;26.70;26.50;;;;;;2232111;62;20439;-64
2024/04/07 05:22:22;0.00;0.00;0.62;0.00;0.00;0.62;5.10;4.00;;;26.70;26.50;;;;;;2231969;62;20406;-65
2024/04/07 05:25:07;0.00;0.00;0.62;0.00;0.00;0.62;4.20;3.73;;;26.70;26.50;;;;;;2232322;62;20474;-64
2024/04/07 05:27:52;0.00;0.00;0.62;0.00;0.00;0.62;5.20;3.77;;;26.70;26.50;;;;;;2231711;62;20396;-64
2024/04/07 05:30:37;0.00;0.00;0.62;0.00;0.00;0.62;5.30;4.20;;;26.70;27.00;;;;;;2231898;62;20568;-65
2024/04/07 05:33:23;0.00;0.00;0.62;0.00;0.00;0.62;6.80;4.43;;;26.70;26.50;;;;;;2232364;62;20439;-65
2024/04/07 05:36:09;0.00;0.00;0.62;0.00;0.00;0.62;6.50;5.40;;;26.70;26.50;;;;;;2231614;62;20434;-65
2024/04/07 05:38:53;0.00;0.00;0.62;0.00;0.00;0.62;6.07;4.43;;;26.70;26.50;;;;;;2232132;62;20416;-64
2024/04/07 05:41:38;0.00;0.00;0.62;0.00;0.00;0.62;6.07;4.70;;;26.70;26.50;;;;;;2231764;62;20986;-64
2024/04/07 05:44:23;0.00;0.00;0.62;0.00;0.00;0.62;7.20;5.60;;;26.70;26.50;;;;;;2231755;62;20372;-65
2024/04/07 05:47:08;0.00;0.00;0.62;0.00;0.00;0.62;5.63;4.93;;;26.70;26.50;;;;;;2232170;62;20512;-65
2024/04/07 05:49:54;0.00;0.00;0.62;0.00;0.00;0.62;5.77;4.43;;;26.60;26.50;;;;;;2232809;62;20371;-65
2024/04/07 05:52:40;0.00;0.00;0.62;0.00;0.00;0.62;6.37;5.03;;;26.70;26.60;;;;;;2236971;62;20434;-65
2024/04/07 05:55:25;0.00;0.00;0.62;0.00;0.00;0.62;6.90;4.87;;;26.60;26.50;;;;;;2232222;62;20415;-64
2024/04/07 05:58:10;0.00;0.00;0.62;0.00;0.00;0.62;7.73;4.63;;;26.60;26.60;;;;;;2231477;62;20500;-64
2024/04/07 06:00:55;0.00;0.00;0.62;0.00;0.00;0.62;5.50;4.80;;;26.60;26.60;;;;;;2232253;62;20379;-64
2024/04/07 06:03:40;0.00;0.00;0.62;0.00;0.00;0.62;5.67;5.10;;;26.60;26.60;;;;;;2232023;62;20886;-64
2024/04/07 06:06:25;0.00;0.00;0.62;0.00;0.00;0.62;5.83;4.80;;;26.60;26.70;;;;;;2231824;62;20427;-65
2024/04/07 06:09:10;0.00;0.00;0.62;0.00;0.00;0.62;6.13;5.07;;;26.60;26.70;;;;;;2232050;62;20379;-64
2024/04/07 06:11:54;0.00;0.00;0.62;0.00;0.00;0.62;5.30;4.73;;;26.60;26.70;;;;;;2231731;62;20422;-64
2024/04/07 06:14:39;0.00;0.00;0.62;0.00;0.00;0.62;7.40;4.97;;;26.60;26.80;;;;;;2231972;62;20823;-64
2024/04/07 06:17:24;0.00;0.00;0.62;0.00;0.00;0.62;5.67;4.63;;;26.60;26.80;;;;;;2232086;62;20395;-63
2024/04/07 06:20:09;0.00;0.00;0.62;0.00;0.00;0.62;5.90;5.03;;;26.60;26.80;;;;;;2231438;62;20382;-64
2024/04/07 06:22:56;0.00;0.00;0.62;0.00;0.00;0.62;6.70;4.93;;;26.60;26.80;;;;;;2271051;58;20445;-63
2024/04/07 06:25:41;0.00;0.00;0.62;0.00;0.00;0.62;7.57;4.90;;;26.60;26.90;;;;;;2232025;62;20379;-64
2024/04/07 06:28:26;0.00;0.00;0.62;0.00;0.00;0.62;7.33;5.17;;;26.60;26.90;;;;;;2231718;62;20386;-65
2024/04/07 06:31:11;0.00;0.00;0.62;0.00;0.00;0.62;5.93;4.93;;;26.60;26.90;;;;;;2232035;62;20499;-64
2024/04/07 06:33:56;0.00;0.00;0.62;0.00;0.00;0.62;5.80;4.57;;;26.60;26.90;;;;;;2231899;62;21042;-64
2024/04/07 06:36:40;0.00;0.00;0.62;0.00;0.00;0.62;6.07;4.40;;;26.60;26.90;;;;;;2531766;46;20366;-63
2024/04/07 06:39:26;0.00;0.00;0.62;0.00;0.00;0.62;8.53;4.90;;;26.60;27.10;;;;;;2234189;62;20367;-64
2024/04/07 06:42:11;0.00;0.00;0.62;0.00;0.00;0.62;6.60;5.00;;;26.60;26.90;;;;;;2231461;62;20484;-64
2024/04/07 06:44:57;0.00;0.00;0.62;0.00;0.00;0.62;7.70;6.13;;;26.60;27.00;;;;;;2231928;62;20423;-66
2024/04/07 06:47:42;0.00;0.00;0.62;0.00;0.00;0.62;5.67;4.60;;;26.60;27.00;;;;;;2231987;62;20878;-64
2024/04/07 06:50:27;0.00;0.00;0.62;0.00;0.00;0.62;6.87;5.30;;;26.60;27.00;;;;;;2231543;62;20398;-64
2024/04/07 06:53:11;0.00;0.00;0.62;0.00;0.00;0.62;6.27;5.33;;;26.60;27.00;;;;;;2231910;62;20438;-63
2024/04/07 06:55:57;0.00;0.00;0.62;0.00;0.00;0.62;6.87;5.37;;;26.60;27.00;;;;;;2231352;62;20367;-66
2024/04/07 06:58:42;0.00;0.00;0.62;0.00;0.00;0.62;6.87;5.60;;;26.60;27.10;;;;;;2457098;54;20372;-63
2024/04/07 07:01:28;0.00;0.00;0.62;0.00;0.00;0.62;6.03;5.30;;;26.60;27.00;;;;;;2228073;62;20440;-65
2024/04/07 07:04:13;0.00;0.00;0.62;0.00;0.00;0.62;7.87;5.73;;;26.60;27.10;;;;;;2228411;62;20511;-64
2024/04/07 07:06:58;0.00;0.00;0.62;0.00;0.00;0.62;7.80;5.90;;;26.60;27.10;;;;;;2231856;62;20962;-63
2024/04/07 07:09:43;0.00;0.00;0.62;0.00;0.00;0.62;8.23;6.10;;;26.60;27.10;;;;;;2231988;62;20489;-65
2024/04/07 07:12:30;0.00;0.00;0.62;0.00;0.00;0.62;7.63;5.60;;;26.60;27.10;;;;;;2231524;62;20375;-64
2024/04/07 07:15:15;0.00;0.00;0.62;0.00;0.00;0.62;7.90;6.03;;;26.60;27.10;;;;;;2231928;62;20391;-65
2024/04/07 07:17:59;0.00;0.00;0.62;0.00;0.00;0.62;7.27;6.00;;;26.60;27.10;;;;;;2231874;62;20371;-63
2024/04/07 07:20:44;0.00;0.00;0.62;0.00;0.00;0.62;6.93;5.30;;;26.60;27.10;;;;;;2231339;62;20399;-63
2024/04/07 07:23:28;0.00;0.00;0.62;0.00;0.00;0.62;7.70;5.73;;;26.60;27.10;;;;;;2231919;62;20452;-63
2024/04/07 07:26:13;0.00;0.00;0.62;0.00;0.00;0.62;7.10;5.87;;;26.60;27.10;;;;;;2231356;62;20450;-66
2024/04/07 07:28:59;0.00;0.00;0.62;0.00;0.00;0.62;6.67;5.73;;;26.60;27.10;;;;;;2231400;62;20359;-63
2024/04/07 07:31:44;0.00;0.00;0.62;0.00;0.00;0.62;7.90;5.57;;;26.60;27.10;;;;;;2231877;62;20427;-64
2024/04/07 07:34:30;0.00;0.00;0.62;0.00;0.00;0.62;7.20;5.07;;;26.60;27.10;;;;;;2231198;62;20801;-64
2024/04/07 07:37:15;0.00;0.00;0.62;0.00;0.00;0.62;5.93;5.13;;;26.60;27.10;;;;;;2231821;62;20367;-63
2024/04/07 07:39:59;0.00;0.00;0.62;0.00;0.00;0.62;7.07;5.67;;;26.60;27.10;;;;;;2231677;62;20410;-64
2024/04/07 07:42:44;0.00;0.00;0.62;0.00;0.00;0.62;5.70;5.10;;;26.60;27.10;;;;;;2231431;62;20797;-64
2024/04/07 07:45:30;0.00;0.00;0.62;0.00;0.00;0.62;7.70;5.43;;;26.60;27.10;;;;;;2231937;62;20396;-63
2024/04/07 07:48:15;0.00;0.00;0.62;0.00;0.00;0.62;6.03;5.30;;;26.60;27.10;;;;;;2230755;62;20371;-66
2024/04/07 07:51:00;0.00;0.00;0.62;0.00;0.00;0.62;6.20;5.20;;;26.60;27.10;;;;;;2231830;62;20448;-63
2024/04/07 07:53:45;0.00;0.00;0.62;0.00;0.00;0.62;4.73;4.20;;;26.60;27.10;;;;;;2231893;62;20573;-63
2024/04/07 07:56:29;0.00;0.00;0.62;0.00;0.00;0.62;6.33;5.40;;;26.60;27.10;;;;;;2231192;62;20394;-66
2024/04/07 07:59:14;0.00;0.00;0.62;0.00;0.00;0.62;6.17;4.50;;;26.60;27.20;;;;;;2231725;62;20392;-65
2024/04/07 08:02:00;0.00;0.00;0.62;0.00;0.00;0.62;6.50;5.20;;;26.60;27.20;;;;;;2231734;62;20391;-64
2024/04/07 08:04:44;0.00;0.00;0.62;0.00;0.00;0.62;5.63;4.53;;;26.60;27.20;;;;;;2231527;62;20930;-64
2024/04/07 08:07:29;0.00;0.00;0.62;0.00;0.00;0.62;7.13;5.10;;;26.70;27.30;;;;;;2232478;62;20414;-63
2024/04/07 08:10:14;0.00;0.00;0.62;0.00;0.00;0.62;6.27;5.20;;;26.70;27.30;;;;;;2232332;62;20371;-65
2024/04/07 08:12:58;0.00;0.00;0.62;0.00;0.00;0.62;4.60;3.87;;;26.70;27.30;;;;;;2489139;54;20371;-66
2024/04/07 08:15:44;0.00;0.00;0.62;0.00;0.00;0.62;5.13;3.80;;;26.70;27.30;;;;;;2228657;62;20372;-65
2024/04/07 08:18:30;0.00;0.00;0.62;0.00;0.00;0.62;6.20;4.83;;;26.70;27.30;;;;;;2229239;62;20383;-65
2024/04/07 08:21:15;0.00;0.00;0.62;0.00;0.00;0.62;5.43;4.00;;;26.70;27.30;;;;;;2232300;62;20442;-67
2024/04/07 08:23:59;0.00;0.00;0.62;0.00;0.00;0.62;6.63;4.93;;;26.70;27.30;;;;;;2232522;62;20371;-66
2024/04/07 08:26:44;0.00;0.00;0.62;0.00;0.00;0.62;4.80;4.20;;;26.70;27.30;;;;;;2232002;62;20397;-66
2024/04/07 08:29:28;0.00;0.00;0.62;0.00;0.00;0.62;5.97;4.47;;;26.70;27.30;;;;;;2232568;62;20379;-66
2024/04/07 08:32:13;0.00;0.00;0.62;0.00;0.00;0.62;5.00;4.20;;;26.70;27.30;;;;;;2232248;62;20766;-66
2024/04/07 08:34:59;0.00;0.00;0.62;0.00;0.00;0.62;4.93;4.00;;;26.70;27.30;;;;;;2601419;46;20483;-66
2024/04/07 08:37:44;0.00;0.00;0.62;0.00;0.00;0.62;6.40;3.77;;;26.70;27.80;;;;;;2232527;62;20898;-65
2024/04/07 08:40:28;0.00;0.00;0.62;0.00;0.00;0.62;5.77;4.47;;;26.70;27.30;;;;;;2231831;62;20820;-64
2024/04/07 08:43:14;0.00;0.00;0.62;0.00;0.00;0.62;6.67;4.07;;;26.70;27.30;;;;;;2232319;62;20411;-66
2024/04/07 08:45:58;0.00;0.00;0.62;0.00;0.00;0.62;4.47;3.60;;;26.70;27.30;;;;;;2232479;62;20428;-65
2024/04/07 08:48:50;0.00;0.00;0.62;0.00;0.00;0.62;6.07;4.20;;;26.70;27.40;;;;;;2231618;62;20370;-65
2024/04/07 08:51:38;0.00;0.00;0.62;0.00;0.00;0.62;5.00;4.23;;;26.70;27.40;;;;;;2232512;62;20387;-66
2024/04/07 08:54:23;0.00;0.00;0.62;0.00;0.00;0.62;4.83;3.60;;;26.70;27.40;;;;;;2232180;62;20395;-66
2024/04/07 08:57:09;0.00;0.00;0.62;0.00;0.00;0.62;5.10;4.10;;;26.70;27.40;;;;;;2673569;46;20359;-65
2024/04/07 08:59:54;0.00;0.00;0.62;0.00;0.00;0.62;5.70;4.13;;;26.70;27.40;;;;;;2228670;62;20497;-65
2024/04/07 09:02:39;0.00;0.00;0.62;0.00;0.00;0.62;5.03;3.83;;;26.70;27.40;;;;;;2228845;62;20423;-65
2024/04/07 09:05:24;0.00;0.00;0.62;0.00;0.00;0.62;5.27;3.80;;;26.70;27.40;;;;;;2232060;62;20354;-68
2024/04/07 09:08:10;0.00;0.00;0.62;0.00;0.00;0.62;5.20;3.73;;;26.70;27.40;;;;;;2232275;62;20375;-66
2024/04/07 09:10:55;0.00;0.00;0.62;0.00;0.00;0.62;4.83;3.70;;;26.70;27.40;;;;;;2231595;62;20407;-66
2024/04/07 09:13:40;0.00;0.00;0.62;0.00;0.00;0.62;5.20;4.07;;;26.70;27.80;;;;;;2232304;62;20395;-66
2024/04/07 09:16:25;0.00;0.00;0.62;0.00;0.00;0.62;4.23;3.60;;;26.70;27.40;;;;;;2237888;48;20371;31
2024/04/07 09:19:10;0.00;0.00;0.62;0.00;0.00;0.62;4.50;3.50;;;26.70;27.40;;;;;;2229992;62;20436;-72
2024/04/07 09:21:55;0.00;0.00;0.62;0.00;0.00;0.62;3.97;2.87;;;26.70;27.40;;;;;;2228710;62;20468;-72
2024/04/07 09:24:41;0.00;0.00;0.62;0.00;0.00;0.62;6.70;3.80;;;26.70;27.40;;;;;;2228633;62;20460;-71
2024/04/07 09:27:26;0.00;0.00;0.62;0.00;0.00;0.62;4.57;3.90;;;26.70;27.40;;;;;;2228875;62;20403;-73
2024/04/07 09:30:11;0.00;0.00;0.62;0.00;0.00;0.62;4.03;3.13;;;26.70;27.40;;;;;;2229175;62;20436;-72
2024/04/07 09:32:56;0.00;0.00;0.62;0.00;0.00;0.62;4.30;3.70;;;26.70;28.00;;;;;;2226343;62;20380;-73
2024/04/07 09:35:40;0.00;0.00;0.62;0.00;0.00;0.62;5.40;3.60;;;26.70;27.40;;;;;;2225263;62;20461;-72
2024/04/07 09:38:25;0.00;0.00;0.62;0.00;0.00;0.62;4.40;3.13;;;26.70;27.40;;;;;;2224827;62;20485;-72
2024/04/07 09:41:14;0.00;0.00;0.62;0.00;0.00;0.62;5.70;3.37;;;26.70;27.40;;;;;;2224925;62;20533;-72
2024/04/07 09:44:04;0.00;0.00;0.62;0.00;0.00;0.62;4.47;3.00;;;26.80;27.50;;;;;;2225251;62;20405;-72
2024/04/07 09:46:49;0.00;0.00;0.62;0.00;0.00;0.62;5.47;3.53;;;26.70;27.50;;;;;;2225331;62;20448;-71
2024/04/07 09:49:36;0.00;0.00;0.62;0.00;0.00;0.62;4.63;3.37;;;26.70;27.50;;;;;;2229228;62;20434;-72
2024/04/07 09:52:26;0.00;0.00;0.62;0.00;0.00;0.62;6.90;4.10;;;26.70;27.50;;;;;;2228575;62;20914;-72
2024/04/07 09:55:15;0.00;0.00;0.62;0.00;0.00;0.62;5.40;3.50;;;26.80;27.50;;;;;;2228139;62;20396;-72
2024/04/07 09:58:02;0.00;0.00;0.62;0.00;0.00;0.62;4.37;3.10;;;26.80;27.50;;;;;;2229035;62;20392;-71
2024/04/07 10:00:48;0.00;0.00;0.62;0.00;0.00;0.62;4.63;3.70;;;26.80;27.50;;;;;;2228827;62;20548;-72
2024/04/07 10:03:32;0.00;0.00;0.62;0.00;0.00;0.62;3.37;2.77;;;26.80;27.50;;;;;;2224759;62;20819;-72
2024/04/07 10:06:19;0.00;0.00;0.62;0.00;0.00;0.62;5.43;3.33;;;26.80;27.50;;;;;;2224376;62;20485;-72
2024/04/07 10:09:04;0.00;0.00;0.62;0.00;0.00;0.62;3.93;3.00;;;26.80;27.50;;;;;;2224470;62;20451;-71
2024/04/07 10:11:49;0.00;0.00;0.62;0.00;0.00;0.62;5.30;4.00;;;26.80;27.50;;;;;;2225100;62;20354;-72
2024/04/07 10:14:39;0.00;0.00;0.62;0.00;0.00;0.62;3.83;3.23;;;26.80;27.50;;;;;;2225085;62;20389;-72
2024/04/07 10:17:26;0.00;0.00;0.62;0.00;0.00;0.62;4.50;3.27;;;26.80;27.50;;;;;;2224196;62;20477;-73
2024/04/07 10:20:14;0.00;0.00;0.62;0.00;0.00;0.62;4.47;3.57;;;26.80;27.50;;;;;;2225003;62;20433;-72
2024/04/07 10:23:00;0.00;0.00;0.62;0.00;0.00;0.62;3.97;3.27;;;26.80;27.50;;;;;;2224985;62;20927;-72
2024/04/07 10:25:48;0.00;0.00;0.62;0.00;0.00;0.62;5.43;4.17;;;26.80;27.50;;;;;;2228379;62;20388;-71
2024/04/07 10:28:53;0.00;0.00;0.62;0.00;0.00;0.62;5.13;3.80;;;26.80;27.50;;;;;;2228749;62;20858;-72
2024/04/07 10:31:40;0.00;0.00;0.62;0.00;0.00;0.62;4.70;3.20;;;26.80;27.50;;;;;;2228498;62;20379;-74
2024/04/07 10:34:25;0.00;0.00;0.62;0.00;0.00;0.62;4.00;3.00;;;26.80;27.50;;;;;;2228653;62;20392;-72
2024/04/07 10:37:10;0.00;0.00;0.62;0.00;0.00;0.62;3.60;3.23;;;26.80;27.50;;;;;;2228466;62;20993;-73
2024/04/07 10:39:56;0.00;0.00;0.62;0.00;0.00;0.62;5.03;2.90;;;26.80;27.50;;;;;;2225553;62;20377;-72
2024/04/07 10:42:41;0.00;0.00;0.62;0.00;0.00;0.62;4.90;3.37;;;26.80;27.50;;;;;;2225051;62;20393;-72
2024/04/07 10:45:26;0.00;0.00;0.62;0.00;0.00;0.62;4.53;3.50;;;26.80;27.50;;;;;;2226801;62;20598;-72
2024/04/07 10:48:12;0.00;0.00;0.62;0.00;0.00;0.62;3.70;2.97;;;26.80;28.00;;;;;;2727156;46;20386;-71
2024/04/07 10:51:01;0.00;0.00;0.62;0.00;0.00;0.62;6.00;3.00;;;26.90;27.60;;;;;;2224735;62;20382;-72
2024/04/07 10:53:55;0.00;0.00;0.62;0.00;0.00;0.62;4.93;3.20;;;26.90;27.60;;;;;;2224517;62;20384;-73
2024/04/07 10:56:41;0.00;0.00;0.62;0.00;0.00;0.62;4.60;2.90;;;26.90;27.60;;;;;;2224890;62;20468;-72